createdAt,value
2022-12-18T00:02:00.309Z,47.33
2022-12-18T00:04:28.381Z,30.83
2022-12-18T00:06:55.594Z,49.00
2022-12-18T00:09:24.814Z,32.47
2022-12-18T00:11:55.151Z,28.15
2022-12-18T00:14:22.377Z,39.03
2022-12-18T00:16:52.640Z,47.53
2022-12-18T00:19:19.900Z,51.30
2022-12-18T00:21:46.994Z,39.45
2022-12-18T00:24:14.218Z,43.63
2022-12-18T00:26:41.547Z,49.67
2022-12-18T00:29:11.885Z,41.30
2022-12-18T00:31:39.720Z,43.35
2022-12-18T00:34:06.958Z,47.65
2022-12-18T00:36:35.297Z,37.42
2022-12-18T00:39:03.531Z,43.25
2022-12-18T00:41:50.269Z,40.25
2022-12-18T00:44:19.118Z,25.35
2022-12-18T00:46:49.547Z,31.45
2022-12-18T00:49:18.796Z,40.42
2022-12-18T00:51:46.976Z,49.67
2022-12-18T00:54:14.312Z,52.35
2022-12-18T00:56:50.095Z,35.95
2022-12-18T00:59:19.035Z,39.15
2022-12-18T01:01:46.714Z,47.47
2022-12-18T01:04:14.270Z,45.78
2022-12-18T01:06:41.872Z,54.55
2022-12-18T01:09:09.079Z,49.10
2022-12-18T01:11:37.626Z,27.52
2022-12-18T01:14:05.810Z,40.97
2022-12-18T01:16:32.995Z,25.45
2022-12-18T01:19:00.276Z,39.65
2022-12-18T01:21:28.173Z,46.47
2022-12-18T01:23:56.310Z,47.15
2022-12-18T01:26:25.073Z,52.03
2022-12-18T01:28:52.463Z,35.80
2022-12-18T01:31:20.833Z,48.35
2022-12-18T01:33:48.117Z,52.22
2022-12-18T01:36:23.005Z,32.65
2022-12-18T01:38:50.929Z,34.13
2022-12-18T01:41:20.677Z,49.42
2022-12-18T01:43:56.138Z,38.97
2022-12-18T01:46:27.783Z,32.15
2022-12-18T01:49:02.414Z,49.75
2022-12-18T01:51:30.358Z,30.05
2022-12-18T01:53:59.330Z,51.80
2022-12-18T01:56:26.532Z,48.75
2022-12-18T01:59:04.470Z,39.03
2022-12-18T02:01:32.827Z,36.20
2022-12-18T02:04:22.717Z,27.60
2022-12-18T02:06:53.894Z,23.85
2022-12-18T02:09:27.831Z,28.52
2022-12-18T02:12:05.411Z,51.30
2022-12-18T02:14:42.067Z,39.63
2022-12-18T02:17:20.561Z,28.52
2022-12-18T02:20:00.430Z,40.72
2022-12-18T02:22:36.757Z,48.10
2022-12-18T02:25:33.476Z,43.45
2022-12-18T02:28:01.997Z,46.40
2022-12-18T02:30:33.345Z,38.55
2022-12-18T02:33:01.746Z,38.42
2022-12-18T02:35:32.005Z,41.53
2022-12-18T02:38:01.331Z,43.08
2022-12-18T02:40:31.633Z,45.20
2022-12-18T02:43:10.527Z,46.13
2022-12-18T02:45:38.969Z,41.33
2022-12-18T02:48:09.611Z,36.38
2022-12-18T02:50:39.675Z,32.50
2022-12-18T02:53:12.513Z,39.70
2022-12-18T02:56:00.248Z,32.05
2022-12-18T02:58:39.547Z,47.15
2022-12-18T03:01:17.723Z,33.63
2022-12-18T03:03:58.771Z,42.40
2022-12-18T03:06:31.065Z,25.95
2022-12-18T03:09:00.909Z,32.35
2022-12-18T03:14:19.114Z,32.10
2022-12-18T03:16:51.260Z,33.80
2022-12-18T03:19:20.008Z,41.20
2022-12-18T03:21:53.257Z,30.08
2022-12-18T03:24:21.531Z,40.60
2022-12-18T03:26:54.334Z,40.35
2022-12-18T03:29:29.822Z,43.47
2022-12-18T03:32:02.153Z,38.03
2022-12-18T03:34:32.592Z,36.70
2022-12-18T03:37:07.544Z,41.53
2022-12-18T03:39:36.145Z,43.63
2022-12-18T03:42:06.606Z,36.15
2022-12-18T03:44:43.679Z,39.20
2022-12-18T03:47:23.553Z,36.15
2022-12-18T03:50:14.697Z,45.78
2022-12-18T03:52:53.868Z,37.20
2022-12-18T03:55:22.817Z,28.92
2022-12-18T03:57:55.738Z,47.10
2022-12-18T04:00:23.908Z,42.45
2022-12-18T04:03:03.602Z,41.65
2022-12-18T04:05:38.274Z,34.78
2022-12-18T04:08:08.334Z,37.95
2022-12-18T04:10:39.186Z,37.88
2022-12-18T04:13:06.455Z,39.97
2022-12-18T04:15:36.000Z,40.67
2022-12-18T04:20:39.081Z,27.30
2022-12-18T04:23:06.451Z,26.58
2022-12-18T04:25:33.917Z,26.10
2022-12-18T04:28:11.765Z,28.83
2022-12-18T04:30:39.919Z,34.92
2022-12-18T04:33:11.169Z,31.85
2022-12-18T04:35:39.304Z,33.53
2022-12-18T04:38:07.785Z,29.65
2022-12-18T04:40:34.891Z,31.05
2022-12-18T04:43:03.991Z,33.42
2022-12-18T04:45:34.656Z,23.30
2022-12-18T04:48:02.274Z,30.02
2022-12-18T04:50:29.654Z,32.42
2022-12-18T04:52:57.035Z,31.67
2022-12-18T04:55:25.704Z,32.25
2022-12-18T04:57:52.822Z,29.25
2022-12-18T05:00:20.402Z,32.63
2022-12-18T05:02:47.795Z,27.85
2022-12-18T05:05:16.249Z,30.35
2022-12-18T05:07:43.365Z,29.13
2022-12-18T05:10:11.011Z,33.53
2022-12-18T05:12:58.209Z,34.85
2022-12-18T05:15:26.273Z,18.00
2022-12-18T05:17:53.607Z,30.52
2022-12-18T05:20:20.853Z,28.63
2022-12-18T05:22:48.200Z,25.50
2022-12-18T05:25:15.430Z,30.73
2022-12-18T05:27:42.720Z,27.35
2022-12-18T05:30:10.310Z,25.58
2022-12-18T05:32:37.533Z,13.45
2022-12-18T05:35:04.926Z,30.90
2022-12-18T05:37:32.087Z,25.52
2022-12-18T05:39:59.317Z,29.80
2022-12-18T05:42:26.476Z,29.80
2022-12-18T05:44:53.598Z,28.35
2022-12-18T05:47:20.805Z,17.25
2022-12-18T05:49:47.929Z,28.00
2022-12-18T05:52:15.163Z,27.67
2022-12-18T05:54:42.602Z,22.50
2022-12-18T05:57:09.888Z,24.75
2022-12-18T05:59:37.166Z,23.75
2022-12-18T06:02:04.472Z,26.70
2022-12-18T06:04:31.728Z,22.83
2022-12-18T06:06:58.834Z,22.30
2022-12-18T06:09:26.171Z,24.00
2022-12-18T06:11:53.564Z,25.10
2022-12-18T06:14:20.923Z,20.00
2022-12-18T06:16:48.057Z,22.35
2022-12-18T06:19:18.546Z,19.02
2022-12-18T06:21:45.770Z,22.75
2022-12-18T06:24:13.130Z,22.48
2022-12-18T06:26:40.439Z,24.23
2022-12-18T06:29:07.646Z,29.30
2022-12-18T06:31:35.064Z,31.30
2022-12-18T06:34:04.393Z,30.45
2022-12-18T06:36:32.105Z,28.88
2022-12-18T06:38:59.502Z,23.92
2022-12-18T06:41:27.013Z,23.38
2022-12-18T06:43:59.374Z,22.35
2022-12-18T06:46:26.915Z,25.98
2022-12-18T06:48:54.197Z,22.30
2022-12-18T06:51:22.193Z,23.35
2022-12-18T06:53:49.489Z,21.98
2022-12-18T06:56:17.001Z,24.38
2022-12-18T06:58:44.569Z,21.02
2022-12-18T07:01:14.817Z,26.00
2022-12-18T07:03:43.801Z,18.70
2022-12-18T07:06:19.570Z,16.80
2022-12-18T07:08:47.388Z,13.45
2022-12-18T07:11:14.765Z,21.95
2022-12-18T07:13:42.240Z,24.75
2022-12-18T07:16:17.103Z,25.75
2022-12-18T07:18:47.039Z,17.95
2022-12-18T07:21:17.362Z,25.48
2022-12-18T07:23:48.032Z,20.83
2022-12-18T07:26:15.777Z,22.92
2022-12-18T07:28:43.402Z,9.93
2022-12-18T07:31:15.601Z,20.63
2022-12-18T07:33:43.415Z,25.67
2022-12-18T07:36:11.255Z,21.58
2022-12-18T07:38:38.880Z,17.42
2022-12-18T07:41:07.239Z,21.95
2022-12-18T07:43:35.024Z,18.63
2022-12-18T07:46:02.261Z,16.40
2022-12-18T07:48:30.304Z,17.85
2022-12-18T07:51:03.676Z,14.55
2022-12-18T07:53:30.977Z,18.65
2022-12-18T07:56:25.433Z,18.52
2022-12-18T07:58:46.140Z,26.85
2022-12-18T08:01:15.561Z,20.48
2022-12-18T08:03:42.958Z,18.83
2022-12-18T08:06:11.254Z,18.23
2022-12-18T08:08:38.562Z,20.63
2022-12-18T08:11:06.244Z,11.77
2022-12-18T08:13:33.376Z,17.17
2022-12-18T08:16:01.813Z,24.25
2022-12-18T08:18:29.590Z,20.10
2022-12-18T08:20:57.497Z,17.85
2022-12-18T08:23:28.601Z,19.00
2022-12-18T08:25:56.028Z,17.38
2022-12-18T08:28:23.162Z,9.93
2022-12-18T08:30:53.202Z,16.70
2022-12-18T08:33:20.568Z,21.70
2022-12-18T08:35:53.627Z,19.17
2022-12-18T08:38:20.879Z,20.38
2022-12-18T08:40:48.184Z,18.05
2022-12-18T08:43:33.838Z,19.45
2022-12-18T08:46:01.066Z,24.17
2022-12-18T08:48:28.245Z,17.95
2022-12-18T08:50:59.467Z,21.90
2022-12-18T08:53:29.258Z,22.98
2022-12-18T08:55:59.867Z,18.73
2022-12-18T08:58:27.396Z,18.40
2022-12-18T09:00:54.992Z,21.58
2022-12-18T09:03:23.594Z,19.10
2022-12-18T09:05:50.882Z,20.13
2022-12-18T09:08:18.215Z,24.45
2022-12-18T09:10:46.100Z,20.67
2022-12-18T09:13:13.626Z,23.60
2022-12-18T09:15:46.168Z,17.95
2022-12-18T09:18:14.131Z,21.08
2022-12-18T09:20:41.488Z,20.45
2022-12-18T09:23:09.061Z,19.45
2022-12-18T09:25:36.855Z,16.25
2022-12-18T09:28:05.717Z,17.98
2022-12-18T09:30:35.176Z,23.52
2022-12-18T09:33:03.215Z,22.88
2022-12-18T09:35:30.950Z,20.58
2022-12-18T09:37:58.260Z,12.13
2022-12-18T09:40:26.959Z,21.67
2022-12-18T09:42:57.497Z,14.65
2022-12-18T09:45:25.623Z,22.88
2022-12-18T09:47:54.183Z,19.77
2022-12-18T09:50:36.020Z,20.95
2022-12-18T09:53:23.773Z,21.40
2022-12-18T09:55:53.131Z,19.17
2022-12-18T09:58:39.395Z,21.45
2022-12-18T10:01:40.198Z,20.38
2022-12-18T10:04:10.558Z,19.35
2022-12-18T10:06:43.189Z,17.85
2022-12-18T10:09:16.465Z,22.45
2022-12-18T10:11:43.595Z,18.92
2022-12-18T10:14:10.731Z,17.85
2022-12-18T10:16:45.766Z,25.02
2022-12-18T10:19:21.938Z,21.70
2022-12-18T10:22:08.051Z,20.55
2022-12-18T10:24:40.885Z,18.27
2022-12-18T10:27:16.250Z,16.00
2022-12-18T10:29:45.231Z,19.13
2022-12-18T10:32:19.925Z,19.25
2022-12-18T10:34:48.205Z,23.77
2022-12-18T10:37:19.579Z,20.75
2022-12-18T10:39:48.567Z,9.40
2022-12-18T10:42:20.019Z,20.85
2022-12-18T10:44:47.548Z,22.75
2022-12-18T10:47:20.126Z,19.35
2022-12-18T10:49:52.154Z,21.65
2022-12-18T10:52:22.584Z,18.38
2022-12-18T10:54:51.136Z,20.30
2022-12-18T10:57:19.991Z,17.88
2022-12-18T10:59:55.838Z,24.05
2022-12-18T11:02:36.317Z,21.65
2022-12-18T11:05:04.310Z,17.33
2022-12-18T11:07:48.930Z,24.45
2022-12-18T11:10:23.506Z,18.38
2022-12-18T11:12:50.887Z,17.98
2022-12-18T11:15:31.814Z,18.23
2022-12-18T11:17:59.252Z,20.05
2022-12-18T11:20:33.216Z,19.15
2022-12-18T11:23:05.885Z,18.75
2022-12-18T11:25:35.390Z,18.75
2022-12-18T11:28:04.458Z,17.98
2022-12-18T11:30:36.049Z,16.88
2022-12-18T11:33:17.346Z,21.60
2022-12-18T11:35:51.110Z,15.02
2022-12-18T11:38:21.670Z,15.85
2022-12-18T11:40:51.523Z,16.30
2022-12-18T11:43:22.078Z,18.33
2022-12-18T11:45:54.069Z,18.35
2022-12-18T11:48:26.605Z,21.65
2022-12-18T11:50:55.519Z,19.45
2022-12-18T11:53:24.352Z,18.98
2022-12-18T11:56:04.095Z,18.73
2022-12-18T11:58:46.553Z,20.45
2022-12-18T12:01:19.911Z,17.95
2022-12-18T12:03:50.201Z,20.08
2022-12-18T12:06:28.238Z,16.23
2022-12-18T12:08:58.481Z,11.73
2022-12-18T12:11:35.671Z,13.95
2022-12-18T12:14:06.754Z,20.52
2022-12-18T12:16:43.280Z,20.20
2022-12-18T12:19:26.003Z,19.20
2022-12-18T12:22:11.893Z,19.55
2022-12-18T12:24:49.580Z,19.33
2022-12-18T12:27:19.912Z,17.70
2022-12-18T12:29:47.571Z,14.15
2022-12-18T12:32:35.318Z,19.42
2022-12-18T12:35:17.764Z,17.40
2022-12-18T12:37:54.010Z,20.90
2022-12-18T12:43:33.305Z,22.38
2022-12-18T12:46:07.657Z,17.58
2022-12-18T12:48:42.540Z,20.98
2022-12-18T12:51:13.943Z,13.05
2022-12-18T12:53:42.679Z,18.13
2022-12-18T12:56:11.697Z,20.20
2022-12-18T12:58:46.659Z,14.10
2022-12-18T13:01:29.954Z,18.73
2022-12-18T13:04:16.758Z,19.58
2022-12-18T13:06:55.866Z,21.13
2022-12-18T13:09:25.873Z,19.00
2022-12-18T13:12:12.065Z,17.45
2022-12-18T13:14:41.051Z,18.92
2022-12-18T13:17:24.714Z,18.40
2022-12-18T13:19:51.947Z,20.25
2022-12-18T13:22:38.056Z,15.82
2022-12-18T13:25:25.359Z,20.60
2022-12-18T13:28:02.249Z,18.35
2022-12-18T13:30:37.693Z,20.85
2022-12-18T13:33:17.533Z,24.88
2022-12-18T13:35:47.815Z,16.58
2022-12-18T13:38:25.637Z,15.73
2022-12-18T13:40:56.220Z,17.80
2022-12-18T13:43:23.389Z,20.23
2022-12-18T13:46:01.335Z,19.75
2022-12-18T13:48:29.146Z,23.67
2022-12-18T13:51:04.314Z,26.23
2022-12-18T13:53:34.819Z,21.80
2022-12-18T13:58:29.260Z,17.70
2022-12-18T14:00:56.635Z,20.67
2022-12-18T14:03:26.996Z,19.63
2022-12-18T14:05:56.426Z,22.40
2022-12-18T14:08:26.338Z,20.83
2022-12-18T14:10:54.360Z,17.05
2022-12-18T14:13:30.822Z,20.13
2022-12-18T14:16:03.762Z,23.55
2022-12-18T14:18:53.855Z,17.23
2022-12-18T14:21:28.862Z,17.25
2022-12-18T14:24:21.616Z,18.92
2022-12-18T14:26:56.463Z,24.55
2022-12-18T14:29:30.882Z,21.55
2022-12-18T14:32:18.214Z,17.20
2022-12-18T14:34:50.389Z,19.95
2022-12-18T14:37:19.126Z,18.30
2022-12-18T14:39:58.011Z,16.65
2022-12-18T14:42:29.370Z,19.88
2022-12-18T14:45:15.408Z,17.98
2022-12-18T14:47:45.134Z,22.25
2022-12-18T14:50:18.910Z,16.52
2022-12-18T14:52:49.559Z,24.27
2022-12-18T14:58:29.919Z,62.70
2022-12-18T15:00:57.128Z,43.22
2022-12-18T15:03:24.505Z,25.92
2022-12-18T15:05:52.753Z,20.92
2022-12-18T15:08:40.126Z,22.65
2022-12-18T15:11:26.995Z,19.80
2022-12-18T15:13:54.258Z,15.40
2022-12-18T15:16:21.623Z,13.50
2022-12-18T15:18:48.974Z,21.15
2022-12-18T15:21:18.913Z,19.30
2022-12-18T15:23:46.163Z,20.48
2022-12-18T15:26:15.365Z,16.63
2022-12-18T15:28:52.620Z,20.10
2022-12-18T15:31:33.156Z,22.38
2022-12-18T15:34:23.616Z,19.85
2022-12-18T15:36:52.239Z,18.73
2022-12-18T15:39:19.331Z,21.17
2022-12-18T15:42:05.420Z,14.30
2022-12-18T15:44:32.558Z,15.25
2022-12-18T15:47:00.209Z,20.38
2022-12-18T15:49:27.566Z,21.77
2022-12-18T15:51:56.233Z,22.58
2022-12-18T15:54:43.340Z,22.13
2022-12-18T15:57:25.807Z,21.80
2022-12-18T15:59:54.064Z,14.35
2022-12-18T16:02:23.698Z,23.27
2022-12-18T16:04:52.413Z,22.08
2022-12-18T16:07:23.066Z,21.55
2022-12-18T16:09:52.841Z,21.00
2022-12-18T16:12:22.470Z,14.65
2022-12-18T16:14:49.822Z,19.75
2022-12-18T16:17:17.098Z,22.75
2022-12-18T16:19:44.275Z,18.80
2022-12-18T16:22:37.820Z,22.30
2022-12-18T16:25:06.192Z,20.33
2022-12-18T16:27:33.266Z,20.63
2022-12-18T16:30:00.491Z,18.92
2022-12-18T16:32:27.639Z,19.88
2022-12-18T16:34:54.916Z,21.23
2022-12-18T16:37:22.422Z,21.10
2022-12-18T16:39:49.784Z,17.23
2022-12-18T16:42:20.121Z,20.83
2022-12-18T16:47:15.787Z,17.25
2022-12-18T16:49:43.326Z,21.00
2022-12-18T16:52:10.650Z,17.67
2022-12-18T16:54:38.251Z,27.10
2022-12-18T16:57:05.946Z,17.50
2022-12-18T16:59:36.478Z,17.05
2022-12-18T17:02:03.846Z,20.55
2022-12-18T17:04:31.315Z,17.48
2022-12-18T17:06:58.672Z,23.13
2022-12-18T17:09:25.948Z,16.17
2022-12-18T17:11:54.191Z,22.15
2022-12-18T17:14:22.460Z,24.75
2022-12-18T17:16:57.915Z,22.70
2022-12-18T17:19:37.401Z,20.88
2022-12-18T17:22:05.004Z,18.63
2022-12-18T17:24:35.239Z,25.30
2022-12-18T17:27:03.102Z,22.98
2022-12-18T17:29:30.318Z,26.65
2022-12-18T17:31:57.695Z,20.50
2022-12-18T17:34:26.792Z,18.10
2022-12-18T17:36:53.938Z,20.48
2022-12-18T17:39:21.369Z,32.20
2022-12-18T17:41:49.429Z,25.63
2022-12-18T17:44:17.102Z,20.52
2022-12-18T17:46:44.434Z,22.75
2022-12-18T17:49:11.794Z,26.63
2022-12-18T17:51:42.283Z,27.85
2022-12-18T17:54:10.007Z,40.58
2022-12-18T17:56:37.125Z,23.98
2022-12-18T17:59:04.792Z,22.58
2022-12-18T18:01:32.224Z,26.02
2022-12-18T18:04:00.646Z,22.48
2022-12-18T18:06:27.846Z,22.30
2022-12-18T18:08:55.414Z,25.27
2022-12-18T18:11:55.886Z,27.33
2022-12-18T18:14:23.687Z,19.85
2022-12-18T18:16:52.619Z,19.85
2022-12-18T18:19:21.774Z,26.08
2022-12-18T18:21:50.709Z,26.75
2022-12-18T18:24:19.965Z,23.15
2022-12-18T18:26:47.216Z,21.67
2022-12-18T18:29:19.023Z,21.42
2022-12-18T18:31:46.871Z,24.20
2022-12-18T18:34:18.198Z,21.83
2022-12-18T18:36:52.383Z,27.90
2022-12-18T18:39:19.697Z,16.38
2022-12-18T18:41:48.372Z,26.52
2022-12-18T18:44:18.856Z,20.48
2022-12-18T18:46:46.141Z,21.10
2022-12-18T18:49:14.432Z,17.27
2022-12-18T18:51:42.363Z,22.83
2022-12-18T18:54:09.752Z,28.00
2022-12-18T18:57:04.163Z,28.02
2022-12-18T18:59:30.339Z,25.52
2022-12-18T19:02:00.048Z,22.05
2022-12-18T19:04:32.156Z,22.70
2022-12-18T19:06:59.444Z,21.10
2022-12-18T19:09:28.599Z,30.63
2022-12-18T19:12:14.956Z,18.30
2022-12-18T19:14:42.249Z,20.02
2022-12-18T19:17:13.366Z,25.98
2022-12-18T19:19:40.879Z,27.45
2022-12-18T19:22:09.308Z,26.90
2022-12-18T19:24:36.593Z,23.88
2022-12-18T19:27:03.941Z,25.30
2022-12-18T19:29:31.351Z,22.48
2022-12-18T19:31:58.573Z,26.17
2022-12-18T19:34:26.015Z,24.48
2022-12-18T19:36:59.415Z,24.15
2022-12-18T19:39:27.341Z,30.63
2022-12-18T19:41:54.581Z,28.50
2022-12-18T19:44:22.955Z,27.30
2022-12-18T19:46:53.308Z,24.52
2022-12-18T19:49:23.480Z,28.63
2022-12-18T19:51:50.910Z,24.42
2022-12-18T19:54:18.121Z,26.70
2022-12-18T19:56:45.845Z,28.80
2022-12-18T19:59:13.621Z,25.00
2022-12-18T20:01:41.385Z,28.42
2022-12-18T20:04:09.152Z,28.27
2022-12-18T20:06:55.884Z,25.33
2022-12-18T20:09:23.247Z,30.90
2022-12-18T20:11:51.164Z,22.80
2022-12-18T20:14:22.966Z,25.90
2022-12-18T20:16:50.900Z,30.15
2022-12-18T20:19:19.418Z,28.02
2022-12-18T20:21:46.832Z,32.67
2022-12-18T20:24:13.995Z,30.48
2022-12-18T20:26:41.438Z,31.67
2022-12-18T20:29:08.724Z,29.88
2022-12-18T20:31:36.135Z,25.02
2022-12-18T20:34:04.857Z,23.92
2022-12-18T20:36:34.232Z,24.65
2022-12-18T20:39:04.029Z,22.35
2022-12-18T20:41:38.325Z,28.27
2022-12-18T20:44:13.751Z,32.95
2022-12-18T20:46:51.710Z,36.80
2022-12-18T20:49:18.887Z,27.02
2022-12-18T20:51:46.476Z,30.08
2022-12-18T20:54:13.782Z,25.58
2022-12-18T20:56:41.003Z,29.30
2022-12-18T20:59:08.394Z,24.27
2022-12-18T21:01:35.928Z,37.83
2022-12-18T21:04:04.780Z,18.50
2022-12-18T21:06:32.344Z,35.85
2022-12-18T21:08:59.542Z,25.60
2022-12-18T21:11:47.376Z,21.48
2022-12-18T21:14:19.331Z,26.63
2022-12-18T21:16:46.687Z,30.48
2022-12-18T21:19:18.838Z,30.67
2022-12-18T21:21:46.738Z,29.42
2022-12-18T21:24:15.207Z,26.23
2022-12-18T21:26:46.461Z,34.58
2022-12-18T21:29:15.962Z,22.17
2022-12-18T21:31:44.033Z,24.48
2022-12-18T21:34:15.173Z,26.38
2022-12-18T21:36:44.985Z,31.77
2022-12-18T21:39:13.989Z,22.95
2022-12-18T21:42:00.265Z,30.70
2022-12-18T21:44:30.151Z,33.97
2022-12-18T21:47:09.372Z,27.27
2022-12-18T21:49:39.935Z,27.20
2022-12-18T21:52:10.600Z,18.80
2022-12-18T21:54:37.793Z,32.80
2022-12-18T21:57:06.057Z,28.55
2022-12-18T21:59:34.861Z,23.42
2022-12-18T22:02:03.641Z,37.28
2022-12-18T22:04:31.420Z,32.78
2022-12-18T22:07:03.771Z,18.90
2022-12-18T22:09:31.056Z,37.88
2022-12-18T22:11:58.314Z,33.13
2022-12-18T22:14:25.794Z,34.53
2022-12-18T22:16:53.359Z,25.30
2022-12-18T22:19:20.959Z,41.60
2022-12-18T22:21:49.785Z,29.33
2022-12-18T22:24:18.460Z,32.25
2022-12-18T22:26:47.473Z,30.20
2022-12-18T22:29:38.223Z,28.25
2022-12-18T22:32:06.091Z,36.08
2022-12-18T22:34:36.435Z,26.30
2022-12-18T22:39:31.430Z,32.70
2022-12-18T22:41:58.996Z,24.67
2022-12-18T22:44:26.278Z,33.97
2022-12-18T22:47:02.885Z,35.45
2022-12-18T22:49:35.869Z,29.17
2022-12-18T22:52:09.470Z,28.10
2022-12-18T22:54:37.049Z,34.72
2022-12-18T22:57:07.942Z,22.02
2022-12-18T22:59:35.290Z,35.60
2022-12-18T23:02:02.493Z,31.10
2022-12-18T23:04:32.175Z,40.55
2022-12-18T23:07:04.694Z,32.08
2022-12-18T23:09:32.173Z,29.92
2022-12-18T23:11:59.419Z,28.52
2022-12-18T23:14:26.616Z,34.08
2022-12-18T23:16:53.811Z,34.60
2022-12-18T23:19:21.249Z,41.22
2022-12-18T23:21:51.245Z,24.02
2022-12-18T23:24:18.515Z,29.77
2022-12-18T23:26:46.888Z,43.97
2022-12-18T23:29:17.250Z,31.50
2022-12-18T23:31:44.735Z,28.70
2022-12-18T23:34:13.025Z,30.33
2022-12-18T23:36:46.380Z,29.90
2022-12-18T23:39:28.685Z,32.53
2022-12-18T23:42:01.515Z,36.22
2022-12-18T23:44:28.873Z,37.97
2022-12-18T23:46:56.272Z,42.75
2022-12-18T23:49:24.125Z,26.25
2022-12-18T23:51:51.515Z,43.55
2022-12-18T23:54:23.226Z,35.05
2022-12-18T23:57:00.913Z,31.38
2022-12-18T23:59:28.097Z,36.65
